sensor_id;sensor_type;location;lat;lon;timestamp;P1;durP1;ratioP1;P2;durP2;ratioP2
52188;SDS011;38162;45.926;13.608;2022-11-03T00:01:40;65.93;;;44.28;;
52188;SDS011;38162;45.926;13.608;2022-11-03T00:04:08;59.92;;;42.05;;
52188;SDS011;38162;45.926;13.608;2022-11-03T00:06:36;60.88;;;42.30;;
52188;SDS011;38162;45.926;13.608;2022-11-03T00:09:03;59.70;;;42.13;;
52188;SDS011;38162;45.926;13.608;2022-11-03T00:11:31;68.97;;;45.53;;
52188;SDS011;38162;45.926;13.608;2022-11-03T00:14:01;67.78;;;44.83;;
52188;SDS011;38162;45.926;13.608;2022-11-03T00:16:27;71.25;;;45.75;;
52188;SDS011;38162;45.926;13.608;2022-11-03T00:18:53;71.20;;;47.40;;
52188;SDS011;38162;45.926;13.608;2022-11-03T00:21:19;74.13;;;47.50;;
52188;SDS011;38162;45.926;13.608;2022-11-03T00:23:45;73.63;;;49.50;;
52188;SDS011;38162;45.926;13.608;2022-11-03T00:26:18;80.70;;;49.97;;
52188;SDS011;38162;45.926;13.608;2022-11-03T00:28:50;65.35;;;45.92;;
52188;SDS011;38162;45.926;13.608;2022-11-03T00:31:24;77.85;;;48.63;;
52188;SDS011;38162;45.926;13.608;2022-11-03T00:33:52;74.28;;;48.25;;
52188;SDS011;38162;45.926;13.608;2022-11-03T00:36:19;75.45;;;46.13;;
52188;SDS011;38162;45.926;13.608;2022-11-03T00:38:55;80.03;;;48.90;;
52188;SDS011;38162;45.926;13.608;2022-11-03T00:41:22;81.55;;;49.75;;
52188;SDS011;38162;45.926;13.608;2022-11-03T00:43:48;83.63;;;52.63;;
52188;SDS011;38162;45.926;13.608;2022-11-03T00:46:15;80.25;;;51.15;;
52188;SDS011;38162;45.926;13.608;2022-11-03T00:48:42;69.50;;;46.30;;
52188;SDS011;38162;45.926;13.608;2022-11-03T00:53:38;73.05;;;48.58;;
52188;SDS011;38162;45.926;13.608;2022-11-03T00:56:06;73.60;;;48.95;;
52188;SDS011;38162;45.926;13.608;2022-11-03T00:58:44;74.25;;;48.30;;
52188;SDS011;38162;45.926;13.608;2022-11-03T01:01:14;72.07;;;47.33;;
52188;SDS011;38162;45.926;13.608;2022-11-03T01:03:42;69.25;;;45.50;;
52188;SDS011;38162;45.926;13.608;2022-11-03T01:06:30;69.32;;;46.88;;
52188;SDS011;38162;45.926;13.608;2022-11-03T01:09:27;68.43;;;46.53;;
52188;SDS011;38162;45.926;13.608;2022-11-03T01:12:05;72.03;;;47.22;;
52188;SDS011;38162;45.926;13.608;2022-11-03T01:14:39;70.90;;;46.80;;
52188;SDS011;38162;45.926;13.608;2022-11-03T01:17:17;67.88;;;47.67;;
52188;SDS011;38162;45.926;13.608;2022-11-03T01:19:45;67.38;;;45.22;;
52188;SDS011;38162;45.926;13.608;2022-11-03T01:22:11;68.60;;;46.28;;
52188;SDS011;38162;45.926;13.608;2022-11-03T01:24:38;80.35;;;48.00;;
52188;SDS011;38162;45.926;13.608;2022-11-03T01:27:05;73.20;;;48.22;;
52188;SDS011;38162;45.926;13.608;2022-11-03T01:29:32;67.70;;;45.92;;
52188;SDS011;38162;45.926;13.608;2022-11-03T01:31:57;67.05;;;45.78;;
52188;SDS011;38162;45.926;13.608;2022-11-03T01:34:24;68.38;;;45.45;;
52188;SDS011;38162;45.926;13.608;2022-11-03T01:36:49;72.22;;;46.03;;
52188;SDS011;38162;45.926;13.608;2022-11-03T01:39:16;67.60;;;44.10;;
52188;SDS011;38162;45.926;13.608;2022-11-03T01:41:44;66.03;;;45.15;;
52188;SDS011;38162;45.926;13.608;2022-11-03T01:46:54;70.30;;;44.42;;
52188;SDS011;38162;45.926;13.608;2022-11-03T01:52:10;59.83;;;41.67;;
52188;SDS011;38162;45.926;13.608;2022-11-03T01:54:41;72.55;;;46.67;;
52188;SDS011;38162;45.926;13.608;2022-11-03T01:57:10;71.55;;;43.58;;
52188;SDS011;38162;45.926;13.608;2022-11-03T01:59:40;67.22;;;43.58;;
52188;SDS011;38162;45.926;13.608;2022-11-03T02:02:07;64.22;;;41.42;;
52188;SDS011;38162;45.926;13.608;2022-11-03T02:04:33;67.38;;;44.72;;
52188;SDS011;38162;45.926;13.608;2022-11-03T02:07:10;68.82;;;43.92;;
52188;SDS011;38162;45.926;13.608;2022-11-03T02:09:50;70.45;;;44.88;;
52188;SDS011;38162;45.926;13.608;2022-11-03T02:12:16;67.53;;;44.60;;
52188;SDS011;38162;45.926;13.608;2022-11-03T02:14:48;68.22;;;44.72;;
52188;SDS011;38162;45.926;13.608;2022-11-03T02:17:23;61.78;;;40.50;;
52188;SDS011;38162;45.926;13.608;2022-11-03T02:19:54;58.38;;;41.33;;
52188;SDS011;38162;45.926;13.608;2022-11-03T02:27:49;66.53;;;43.45;;
52188;SDS011;38162;45.926;13.608;2022-11-03T02:30:15;57.30;;;40.92;;
52188;SDS011;38162;45.926;13.608;2022-11-03T02:35:20;63.00;;;43.03;;
52188;SDS011;38162;45.926;13.608;2022-11-03T02:37:53;64.75;;;44.22;;
52188;SDS011;38162;45.926;13.608;2022-11-03T02:40:27;61.90;;;41.88;;
52188;SDS011;38162;45.926;13.608;2022-11-03T02:42:56;67.45;;;41.72;;
52188;SDS011;38162;45.926;13.608;2022-11-03T02:45:25;61.83;;;42.15;;
52188;SDS011;38162;45.926;13.608;2022-11-03T02:47:53;58.33;;;40.17;;
52188;SDS011;38162;45.926;13.608;2022-11-03T02:50:25;62.72;;;41.53;;
52188;SDS011;38162;45.926;13.608;2022-11-03T02:52:55;62.40;;;41.13;;
52188;SDS011;38162;45.926;13.608;2022-11-03T03:00:32;64.72;;;41.67;;
52188;SDS011;38162;45.926;13.608;2022-11-03T03:03:07;58.33;;;39.40;;
52188;SDS011;38162;45.926;13.608;2022-11-03T03:05:38;59.10;;;38.80;;
52188;SDS011;38162;45.926;13.608;2022-11-03T03:08:06;56.30;;;38.15;;
52188;SDS011;38162;45.926;13.608;2022-11-03T03:10:35;52.92;;;36.17;;
52188;SDS011;38162;45.926;13.608;2022-11-03T03:13:07;51.65;;;35.67;;
52188;SDS011;38162;45.926;13.608;2022-11-03T03:16:20;46.33;;;33.97;;
52188;SDS011;38162;45.926;13.608;2022-11-03T03:19:27;47.95;;;34.40;;
52188;SDS011;38162;45.926;13.608;2022-11-03T03:21:52;54.25;;;33.75;;
52188;SDS011;38162;45.926;13.608;2022-11-03T03:27:00;44.15;;;30.70;;
52188;SDS011;38162;45.926;13.608;2022-11-03T03:29:33;41.42;;;29.90;;
52188;SDS011;38162;45.926;13.608;2022-11-03T03:32:05;42.35;;;29.45;;
52188;SDS011;38162;45.926;13.608;2022-11-03T03:34:34;50.28;;;32.03;;
52188;SDS011;38162;45.926;13.608;2022-11-03T03:37:04;46.10;;;33.40;;
52188;SDS011;38162;45.926;13.608;2022-11-03T03:39:31;50.92;;;34.47;;
52188;SDS011;38162;45.926;13.608;2022-11-03T03:42:00;50.20;;;35.33;;
52188;SDS011;38162;45.926;13.608;2022-11-03T03:44:27;48.45;;;34.30;;
52188;SDS011;38162;45.926;13.608;2022-11-03T03:47:00;46.00;;;33.85;;
52188;SDS011;38162;45.926;13.608;2022-11-03T03:49:31;45.10;;;33.03;;
52188;SDS011;38162;45.926;13.608;2022-11-03T03:51:56;45.35;;;34.83;;
52188;SDS011;38162;45.926;13.608;2022-11-03T03:54:23;40.75;;;32.67;;
52188;SDS011;38162;45.926;13.608;2022-11-03T03:59:24;40.22;;;31.52;;
52188;SDS011;38162;45.926;13.608;2022-11-03T04:01:50;53.58;;;34.28;;
52188;SDS011;38162;45.926;13.608;2022-11-03T04:04:16;45.08;;;32.15;;
52188;SDS011;38162;45.926;13.608;2022-11-03T04:06:41;42.65;;;32.90;;
52188;SDS011;38162;45.926;13.608;2022-11-03T04:09:08;44.05;;;33.05;;
52188;SDS011;38162;45.926;13.608;2022-11-03T04:11:34;43.85;;;33.60;;
52188;SDS011;38162;45.926;13.608;2022-11-03T04:14:18;42.78;;;31.42;;
52188;SDS011;38162;45.926;13.608;2022-11-03T04:17:02;40.38;;;28.75;;
52188;SDS011;38162;45.926;13.608;2022-11-03T04:19:46;42.85;;;29.65;;
52188;SDS011;38162;45.926;13.608;2022-11-03T04:22:31;43.92;;;29.33;;
52188;SDS011;38162;45.926;13.608;2022-11-03T04:24:57;45.15;;;31.70;;
52188;SDS011;38162;45.926;13.608;2022-11-03T04:27:34;51.92;;;32.58;;
52188;SDS011;38162;45.926;13.608;2022-11-03T04:30:08;53.22;;;33.15;;
52188;SDS011;38162;45.926;13.608;2022-11-03T04:32:39;42.88;;;31.70;;
52188;SDS011;38162;45.926;13.608;2022-11-03T04:38:31;42.92;;;30.77;;
52188;SDS011;38162;45.926;13.608;2022-11-03T04:40:42;47.17;;;30.10;;
52188;SDS011;38162;45.926;13.608;2022-11-03T04:43:09;45.75;;;30.02;;
52188;SDS011;38162;45.926;13.608;2022-11-03T04:45:37;44.05;;;30.80;;
52188;SDS011;38162;45.926;13.608;2022-11-03T04:48:14;46.58;;;29.90;;
52188;SDS011;38162;45.926;13.608;2022-11-03T04:50:44;40.85;;;29.17;;
52188;SDS011;38162;45.926;13.608;2022-11-03T04:53:15;45.65;;;30.35;;
52188;SDS011;38162;45.926;13.608;2022-11-03T04:55:43;43.40;;;29.05;;
52188;SDS011;38162;45.926;13.608;2022-11-03T04:58:12;40.05;;;29.55;;
52188;SDS011;38162;45.926;13.608;2022-11-03T05:00:55;44.00;;;29.85;;
52188;SDS011;38162;45.926;13.608;2022-11-03T05:03:26;39.55;;;29.15;;
52188;SDS011;38162;45.926;13.608;2022-11-03T05:08:21;45.83;;;29.80;;
52188;SDS011;38162;45.926;13.608;2022-11-03T05:10:48;43.22;;;29.63;;
52188;SDS011;38162;45.926;13.608;2022-11-03T05:13:15;44.85;;;29.83;;
52188;SDS011;38162;45.926;13.608;2022-11-03T05:15:49;40.03;;;28.75;;
52188;SDS011;38162;45.926;13.608;2022-11-03T05:20:53;41.47;;;27.25;;
52188;SDS011;38162;45.926;13.608;2022-11-03T05:23:23;41.03;;;26.98;;
52188;SDS011;38162;45.926;13.608;2022-11-03T05:25:52;37.92;;;28.80;;
52188;SDS011;38162;45.926;13.608;2022-11-03T05:30:54;46.38;;;29.17;;
52188;SDS011;38162;45.926;13.608;2022-11-03T05:33:30;42.83;;;29.20;;
52188;SDS011;38162;45.926;13.608;2022-11-03T05:36:03;37.67;;;28.15;;
52188;SDS011;38162;45.926;13.608;2022-11-03T05:38:32;41.25;;;27.95;;
52188;SDS011;38162;45.926;13.608;2022-11-03T05:40:58;35.13;;;26.50;;
52188;SDS011;38162;45.926;13.608;2022-11-03T05:43:25;36.55;;;26.85;;
52188;SDS011;38162;45.926;13.608;2022-11-03T05:45:54;33.35;;;25.33;;
52188;SDS011;38162;45.926;13.608;2022-11-03T05:48:36;39.60;;;24.92;;
52188;SDS011;38162;45.926;13.608;2022-11-03T05:51:15;29.20;;;20.90;;
52188;SDS011;38162;45.926;13.608;2022-11-03T05:53:45;30.63;;;20.77;;
52188;SDS011;38162;45.926;13.608;2022-11-03T05:56:18;27.25;;;21.90;;
52188;SDS011;38162;45.926;13.608;2022-11-03T05:58:46;27.33;;;20.90;;
52188;SDS011;38162;45.926;13.608;2022-11-03T06:03:42;28.30;;;21.55;;
52188;SDS011;38162;45.926;13.608;2022-11-03T06:06:18;29.38;;;20.63;;
52188;SDS011;38162;45.926;13.608;2022-11-03T06:08:48;30.83;;;20.58;;
52188;SDS011;38162;45.926;13.608;2022-11-03T06:11:34;27.85;;;20.65;;
52188;SDS011;38162;45.926;13.608;2022-11-03T06:14:01;29.00;;;21.13;;
52188;SDS011;38162;45.926;13.608;2022-11-03T06:19:36;35.03;;;21.65;;
52188;SDS011;38162;45.926;13.608;2022-11-03T06:22:23;28.20;;;20.23;;
52188;SDS011;38162;45.926;13.608;2022-11-03T06:24:54;30.33;;;20.42;;
52188;SDS011;38162;45.926;13.608;2022-11-03T06:27:24;31.80;;;21.33;;
52188;SDS011;38162;45.926;13.608;2022-11-03T06:30:00;32.28;;;21.02;;
52188;SDS011;38162;45.926;13.608;2022-11-03T06:32:36;32.53;;;21.65;;
52188;SDS011;38162;45.926;13.608;2022-11-03T06:35:01;27.98;;;21.95;;
52188;SDS011;38162;45.926;13.608;2022-11-03T06:37:31;30.85;;;22.27;;
52188;SDS011;38162;45.926;13.608;2022-11-03T06:39:58;31.73;;;23.23;;
52188;SDS011;38162;45.926;13.608;2022-11-03T06:42:44;32.17;;;21.58;;
52188;SDS011;38162;45.926;13.608;2022-11-03T06:45:20;32.95;;;21.48;;
52188;SDS011;38162;45.926;13.608;2022-11-03T06:47:47;35.50;;;22.55;;
52188;SDS011;38162;45.926;13.608;2022-11-03T06:52:54;32.58;;;21.95;;
52188;SDS011;38162;45.926;13.608;2022-11-03T06:55:25;26.65;;;20.48;;
52188;SDS011;38162;45.926;13.608;2022-11-03T06:58:36;34.35;;;21.25;;
52188;SDS011;38162;45.926;13.608;2022-11-03T07:00:40;26.92;;;19.77;;
52188;SDS011;38162;45.926;13.608;2022-11-03T07:03:23;38.15;;;20.27;;
52188;SDS011;38162;45.926;13.608;2022-11-03T07:06:01;30.75;;;20.40;;
52188;SDS011;38162;45.926;13.608;2022-11-03T07:08:52;29.00;;;20.20;;
52188;SDS011;38162;45.926;13.608;2022-11-03T07:11:20;36.17;;;21.85;;
52188;SDS011;38162;45.926;13.608;2022-11-03T07:13:51;34.97;;;23.90;;
52188;SDS011;38162;45.926;13.608;2022-11-03T07:16:34;34.38;;;23.77;;
52188;SDS011;38162;45.926;13.608;2022-11-03T07:19:05;29.90;;;22.90;;
52188;SDS011;38162;45.926;13.608;2022-11-03T07:21:39;41.17;;;25.50;;
52188;SDS011;38162;45.926;13.608;2022-11-03T07:24:12;33.83;;;25.40;;
52188;SDS011;38162;45.926;13.608;2022-11-03T07:29:08;36.05;;;26.25;;
52188;SDS011;38162;45.926;13.608;2022-11-03T07:31:40;37.08;;;25.25;;
52188;SDS011;38162;45.926;13.608;2022-11-03T07:34:08;36.53;;;26.02;;
52188;SDS011;38162;45.926;13.608;2022-11-03T07:36:39;36.25;;;25.05;;
52188;SDS011;38162;45.926;13.608;2022-11-03T07:39:07;33.28;;;24.08;;
52188;SDS011;38162;45.926;13.608;2022-11-03T07:41:40;33.92;;;23.95;;
52188;SDS011;38162;45.926;13.608;2022-11-03T07:44:07;35.92;;;24.98;;
52188;SDS011;38162;45.926;13.608;2022-11-03T07:46:38;33.50;;;24.75;;
52188;SDS011;38162;45.926;13.608;2022-11-03T07:49:04;35.85;;;23.50;;
52188;SDS011;38162;45.926;13.608;2022-11-03T07:51:38;32.07;;;23.97;;
52188;SDS011;38162;45.926;13.608;2022-11-03T07:56:47;36.33;;;22.23;;
52188;SDS011;38162;45.926;13.608;2022-11-03T07:59:22;31.40;;;22.48;;
52188;SDS011;38162;45.926;13.608;2022-11-03T08:01:56;35.50;;;23.30;;
52188;SDS011;38162;45.926;13.608;2022-11-03T08:06:55;30.27;;;21.27;;
52188;SDS011;38162;45.926;13.608;2022-11-03T08:09:21;34.95;;;23.40;;
52188;SDS011;38162;45.926;13.608;2022-11-03T08:11:47;30.52;;;21.98;;
52188;SDS011;38162;45.926;13.608;2022-11-03T08:14:13;35.80;;;22.52;;
52188;SDS011;38162;45.926;13.608;2022-11-03T08:16:39;34.67;;;22.77;;
52188;SDS011;38162;45.926;13.608;2022-11-03T08:19:05;35.97;;;23.45;;
52188;SDS011;38162;45.926;13.608;2022-11-03T08:21:31;35.38;;;24.15;;
52188;SDS011;38162;45.926;13.608;2022-11-03T08:23:57;33.90;;;21.75;;
52188;SDS011;38162;45.926;13.608;2022-11-03T08:26:22;28.17;;;18.20;;
52188;SDS011;38162;45.926;13.608;2022-11-03T08:28:48;26.67;;;19.02;;
52188;SDS011;38162;45.926;13.608;2022-11-03T08:31:14;29.50;;;17.90;;
52188;SDS011;38162;45.926;13.608;2022-11-03T08:33:40;24.25;;;15.88;;
52188;SDS011;38162;45.926;13.608;2022-11-03T08:36:06;26.42;;;16.40;;
52188;SDS011;38162;45.926;13.608;2022-11-03T08:38:35;20.63;;;14.98;;
52188;SDS011;38162;45.926;13.608;2022-11-03T08:41:01;25.70;;;15.80;;
52188;SDS011;38162;45.926;13.608;2022-11-03T08:43:28;24.77;;;15.82;;
52188;SDS011;38162;45.926;13.608;2022-11-03T08:45:53;18.45;;;15.60;;
52188;SDS011;38162;45.926;13.608;2022-11-03T08:48:23;22.88;;;15.00;;
52188;SDS011;38162;45.926;13.608;2022-11-03T08:50:53;21.92;;;14.73;;
52188;SDS011;38162;45.926;13.608;2022-11-03T08:53:20;23.27;;;13.85;;
52188;SDS011;38162;45.926;13.608;2022-11-03T08:55:50;17.52;;;13.15;;
52188;SDS011;38162;45.926;13.608;2022-11-03T08:58:16;21.92;;;12.93;;
52188;SDS011;38162;45.926;13.608;2022-11-03T09:00:41;27.00;;;13.05;;
52188;SDS011;38162;45.926;13.608;2022-11-03T09:03:07;23.38;;;14.73;;
52188;SDS011;38162;45.926;13.608;2022-11-03T09:05:33;27.38;;;17.00;;
52188;SDS011;38162;45.926;13.608;2022-11-03T09:07:59;25.17;;;16.73;;
52188;SDS011;38162;45.926;13.608;2022-11-03T09:10:24;27.58;;;17.52;;
52188;SDS011;38162;45.926;13.608;2022-11-03T09:12:51;30.67;;;19.98;;
52188;SDS011;38162;45.926;13.608;2022-11-03T09:15:17;30.75;;;18.75;;
52188;SDS011;38162;45.926;13.608;2022-11-03T09:17:42;31.13;;;20.63;;
52188;SDS011;38162;45.926;13.608;2022-11-03T09:20:08;33.28;;;21.05;;
52188;SDS011;38162;45.926;13.608;2022-11-03T09:22:35;30.40;;;19.98;;
52188;SDS011;38162;45.926;13.608;2022-11-03T09:25:01;32.25;;;19.58;;
52188;SDS011;38162;45.926;13.608;2022-11-03T09:27:27;113.65;;;28.30;;
52188;SDS011;38162;45.926;13.608;2022-11-03T09:29:52;48.92;;;21.05;;
52188;SDS011;38162;45.926;13.608;2022-11-03T09:32:18;30.23;;;17.95;;
52188;SDS011;38162;45.926;13.608;2022-11-03T09:34:44;36.42;;;18.05;;
52188;SDS011;38162;45.926;13.608;2022-11-03T09:37:09;27.60;;;13.13;;
52188;SDS011;38162;45.926;13.608;2022-11-03T09:39:35;29.38;;;14.52;;
52188;SDS011;38162;45.926;13.608;2022-11-03T09:42:01;24.33;;;14.82;;
52188;SDS011;38162;45.926;13.608;2022-11-03T09:44:30;20.80;;;14.98;;
52188;SDS011;38162;45.926;13.608;2022-11-03T09:46:58;23.10;;;16.90;;
52188;SDS011;38162;45.926;13.608;2022-11-03T09:49:24;20.90;;;14.80;;
52188;SDS011;38162;45.926;13.608;2022-11-03T09:51:51;26.98;;;16.02;;
52188;SDS011;38162;45.926;13.608;2022-11-03T09:54:18;22.08;;;14.82;;
52188;SDS011;38162;45.926;13.608;2022-11-03T09:56:44;22.08;;;15.43;;
52188;SDS011;38162;45.926;13.608;2022-11-03T09:59:18;21.80;;;14.57;;
52188;SDS011;38162;45.926;13.608;2022-11-03T10:01:46;24.73;;;13.93;;
52188;SDS011;38162;45.926;13.608;2022-11-03T10:04:17;19.40;;;11.80;;
52188;SDS011;38162;45.926;13.608;2022-11-03T10:06:53;20.75;;;12.25;;
52188;SDS011;38162;45.926;13.608;2022-11-03T10:09:20;17.25;;;12.23;;
52188;SDS011;38162;45.926;13.608;2022-11-03T10:11:47;20.42;;;13.18;;
52188;SDS011;38162;45.926;13.608;2022-11-03T10:14:15;20.70;;;13.10;;
52188;SDS011;38162;45.926;13.608;2022-11-03T10:16:42;20.50;;;13.52;;
52188;SDS011;38162;45.926;13.608;2022-11-03T10:19:14;16.45;;;12.93;;
52188;SDS011;38162;45.926;13.608;2022-11-03T10:21:42;18.90;;;12.75;;
52188;SDS011;38162;45.926;13.608;2022-11-03T10:24:11;21.45;;;12.20;;
52188;SDS011;38162;45.926;13.608;2022-11-03T10:29:26;23.17;;;12.10;;
52188;SDS011;38162;45.926;13.608;2022-11-03T10:31:53;16.88;;;11.07;;
52188;SDS011;38162;45.926;13.608;2022-11-03T10:37:10;20.95;;;10.27;;
52188;SDS011;38162;45.926;13.608;2022-11-03T10:39:41;19.08;;;10.07;;
52188;SDS011;38162;45.926;13.608;2022-11-03T10:42:15;17.75;;;10.95;;
52188;SDS011;38162;45.926;13.608;2022-11-03T10:44:43;18.60;;;11.43;;
52188;SDS011;38162;45.926;13.608;2022-11-03T10:47:09;17.20;;;11.30;;
52188;SDS011;38162;45.926;13.608;2022-11-03T10:49:47;17.40;;;11.23;;
52188;SDS011;38162;45.926;13.608;2022-11-03T10:52:22;20.70;;;11.18;;
52188;SDS011;38162;45.926;13.608;2022-11-03T10:54:51;16.30;;;11.77;;
52188;SDS011;38162;45.926;13.608;2022-11-03T10:57:18;23.67;;;12.38;;
52188;SDS011;38162;45.926;13.608;2022-11-03T10:59:46;16.48;;;11.80;;
52188;SDS011;38162;45.926;13.608;2022-11-03T11:02:21;23.20;;;12.85;;
52188;SDS011;38162;45.926;13.608;2022-11-03T11:04:58;20.58;;;10.48;;
52188;SDS011;38162;45.926;13.608;2022-11-03T11:07:28;17.98;;;10.77;;
52188;SDS011;38162;45.926;13.608;2022-11-03T11:12:39;15.77;;;10.73;;
52188;SDS011;38162;45.926;13.608;2022-11-03T11:26:12;16.23;;;10.95;;
52188;SDS011;38162;45.926;13.608;2022-11-03T11:36:48;15.90;;;9.82;;
52188;SDS011;38162;45.926;13.608;2022-11-03T11:48:04;19.75;;;9.27;;
52188;SDS011;38162;45.926;13.608;2022-11-03T11:52:35;14.93;;;8.18;;
52188;SDS011;38162;45.926;13.608;2022-11-03T11:55:19;16.88;;;7.45;;
52188;SDS011;38162;45.926;13.608;2022-11-03T11:57:59;15.43;;;7.50;;
52188;SDS011;38162;45.926;13.608;2022-11-03T12:00:31;15.20;;;7.95;;
52188;SDS011;38162;45.926;13.608;2022-11-03T12:02:58;15.25;;;6.47;;
52188;SDS011;38162;45.926;13.608;2022-11-03T12:05:30;12.23;;;6.97;;
52188;SDS011;38162;45.926;13.608;2022-11-03T12:07:58;10.43;;;6.53;;
52188;SDS011;38162;45.926;13.608;2022-11-03T12:10:25;17.33;;;7.38;;
52188;SDS011;38162;45.926;13.608;2022-11-03T12:12:53;12.75;;;6.38;;
52188;SDS011;38162;45.926;13.608;2022-11-03T12:18:37;8.95;;;6.22;;
52188;SDS011;38162;45.926;13.608;2022-11-03T12:21:04;8.30;;;5.38;;
52188;SDS011;38162;45.926;13.608;2022-11-03T12:26:02;10.43;;;5.07;;
52188;SDS011;38162;45.926;13.608;2022-11-03T12:28:35;6.47;;;4.07;;
52188;SDS011;38162;45.926;13.608;2022-11-03T12:33:28;11.35;;;3.58;;
52188;SDS011;38162;45.926;13.608;2022-11-03T12:35:54;10.27;;;3.70;;
52188;SDS011;38162;45.926;13.608;2022-11-03T12:38:21;11.52;;;3.88;;
52188;SDS011;38162;45.926;13.608;2022-11-03T12:40:47;9.55;;;4.00;;
52188;SDS011;38162;45.926;13.608;2022-11-03T12:43:13;8.30;;;4.50;;
52188;SDS011;38162;45.926;13.608;2022-11-03T12:45:39;9.95;;;4.80;;
52188;SDS011;38162;45.926;13.608;2022-11-03T12:48:05;8.23;;;4.85;;
52188;SDS011;38162;45.926;13.608;2022-11-03T12:50:31;6.85;;;4.40;;
52188;SDS011;38162;45.926;13.608;2022-11-03T12:52:57;11.32;;;5.25;;
52188;SDS011;38162;45.926;13.608;2022-11-03T12:55:23;12.82;;;5.88;;
52188;SDS011;38162;45.926;13.608;2022-11-03T12:57:48;10.98;;;5.43;;
52188;SDS011;38162;45.926;13.608;2022-11-03T13:00:14;8.00;;;5.00;;
52188;SDS011;38162;45.926;13.608;2022-11-03T13:02:40;9.60;;;5.30;;
52188;SDS011;38162;45.926;13.608;2022-11-03T13:05:06;8.52;;;4.63;;
52188;SDS011;38162;45.926;13.608;2022-11-03T13:07:32;29.15;;;6.78;;
52188;SDS011;38162;45.926;13.608;2022-11-03T13:09:57;11.98;;;4.20;;
52188;SDS011;38162;45.926;13.608;2022-11-03T13:12:23;10.05;;;4.70;;
52188;SDS011;38162;45.926;13.608;2022-11-03T13:14:59;8.20;;;4.15;;
52188;SDS011;38162;45.926;13.608;2022-11-03T13:17:28;13.45;;;6.82;;
52188;SDS011;38162;45.926;13.608;2022-11-03T13:19:53;63.45;;;20.15;;
52188;SDS011;38162;45.926;13.608;2022-11-03T13:22:19;10.25;;;5.78;;
52188;SDS011;38162;45.926;13.608;2022-11-03T13:24:45;22.83;;;10.50;;
52188;SDS011;38162;45.926;13.608;2022-11-03T13:27:11;9.77;;;5.57;;
52188;SDS011;38162;45.926;13.608;2022-11-03T13:29:36;12.20;;;7.30;;
52188;SDS011;38162;45.926;13.608;2022-11-03T13:32:02;43.63;;;16.73;;
52188;SDS011;38162;45.926;13.608;2022-11-03T13:34:29;62.08;;;21.98;;
52188;SDS011;38162;45.926;13.608;2022-11-03T13:36:54;22.85;;;10.38;;
52188;SDS011;38162;45.926;13.608;2022-11-03T13:39:20;13.70;;;7.55;;
52188;SDS011;38162;45.926;13.608;2022-11-03T13:41:46;22.17;;;9.88;;
52188;SDS011;38162;45.926;13.608;2022-11-03T13:44:12;34.47;;;15.15;;
52188;SDS011;38162;45.926;13.608;2022-11-03T13:46:37;27.95;;;9.38;;
52188;SDS011;38162;45.926;13.608;2022-11-03T13:49:03;15.48;;;9.80;;
52188;SDS011;38162;45.926;13.608;2022-11-03T13:51:29;23.15;;;13.13;;
52188;SDS011;38162;45.926;13.608;2022-11-03T13:53:55;22.10;;;10.55;;
52188;SDS011;38162;45.926;13.608;2022-11-03T13:56:20;58.53;;;27.42;;
52188;SDS011;38162;45.926;13.608;2022-11-03T13:58:46;18.08;;;11.55;;
52188;SDS011;38162;45.926;13.608;2022-11-03T14:01:12;31.67;;;17.17;;
52188;SDS011;38162;45.926;13.608;2022-11-03T14:03:38;23.23;;;13.23;;
52188;SDS011;38162;45.926;13.608;2022-11-03T14:06:04;19.73;;;12.40;;
52188;SDS011;38162;45.926;13.608;2022-11-03T14:08:30;23.17;;;12.30;;
52188;SDS011;38162;45.926;13.608;2022-11-03T14:10:55;22.60;;;11.73;;
52188;SDS011;38162;45.926;13.608;2022-11-03T14:13:21;16.95;;;11.43;;
52188;SDS011;38162;45.926;13.608;2022-11-03T14:15:47;20.13;;;11.75;;
52188;SDS011;38162;45.926;13.608;2022-11-03T14:18:12;20.92;;;11.60;;
52188;SDS011;38162;45.926;13.608;2022-11-03T14:20:38;18.08;;;11.45;;
52188;SDS011;38162;45.926;13.608;2022-11-03T14:23:04;19.95;;;13.30;;
52188;SDS011;38162;45.926;13.608;2022-11-03T14:25:29;18.70;;;12.20;;
52188;SDS011;38162;45.926;13.608;2022-11-03T14:27:55;21.92;;;12.30;;
52188;SDS011;38162;45.926;13.608;2022-11-03T14:30:20;21.65;;;12.18;;
52188;SDS011;38162;45.926;13.608;2022-11-03T14:32:46;18.38;;;11.38;;
52188;SDS011;38162;45.926;13.608;2022-11-03T14:35:12;20.52;;;12.75;;
52188;SDS011;38162;45.926;13.608;2022-11-03T14:37:37;24.02;;;13.52;;
52188;SDS011;38162;45.926;13.608;2022-11-03T14:40:04;23.65;;;13.02;;
52188;SDS011;38162;45.926;13.608;2022-11-03T14:42:30;24.63;;;13.50;;
52188;SDS011;38162;45.926;13.608;2022-11-03T14:44:56;19.15;;;12.52;;
52188;SDS011;38162;45.926;13.608;2022-11-03T14:47:22;29.17;;;14.82;;
52188;SDS011;38162;45.926;13.608;2022-11-03T14:49:49;22.15;;;12.90;;
52188;SDS011;38162;45.926;13.608;2022-11-03T14:52:15;21.42;;;12.77;;
52188;SDS011;38162;45.926;13.608;2022-11-03T14:54:41;21.65;;;13.20;;
52188;SDS011;38162;45.926;13.608;2022-11-03T14:57:07;19.17;;;12.50;;
52188;SDS011;38162;45.926;13.608;2022-11-03T14:59:33;24.73;;;13.57;;
52188;SDS011;38162;45.926;13.608;2022-11-03T15:02:00;22.23;;;12.60;;
52188;SDS011;38162;45.926;13.608;2022-11-03T15:04:26;18.42;;;13.88;;
52188;SDS011;38162;45.926;13.608;2022-11-03T15:06:51;22.05;;;13.82;;
52188;SDS011;38162;45.926;13.608;2022-11-03T15:09:18;26.38;;;14.32;;
52188;SDS011;38162;45.926;13.608;2022-11-03T15:11:44;23.52;;;13.10;;
52188;SDS011;38162;45.926;13.608;2022-11-03T15:14:10;22.27;;;13.10;;
52188;SDS011;38162;45.926;13.608;2022-11-03T15:16:36;20.65;;;12.93;;
52188;SDS011;38162;45.926;13.608;2022-11-03T15:19:02;22.30;;;12.95;;
52188;SDS011;38162;45.926;13.608;2022-11-03T15:21:29;23.25;;;13.65;;
52188;SDS011;38162;45.926;13.608;2022-11-03T15:23:56;25.45;;;13.43;;
52188;SDS011;38162;45.926;13.608;2022-11-03T15:26:22;21.23;;;13.25;;
52188;SDS011;38162;45.926;13.608;2022-11-03T15:28:47;20.20;;;13.40;;
52188;SDS011;38162;45.926;13.608;2022-11-03T15:31:13;23.60;;;13.55;;
52188;SDS011;38162;45.926;13.608;2022-11-03T15:33:39;19.77;;;13.35;;
52188;SDS011;38162;45.926;13.608;2022-11-03T15:36:04;24.55;;;14.23;;
52188;SDS011;38162;45.926;13.608;2022-11-03T15:38:32;21.58;;;15.15;;
52188;SDS011;38162;45.926;13.608;2022-11-03T15:40:57;23.90;;;14.40;;
52188;SDS011;38162;45.926;13.608;2022-11-03T15:43:39;21.05;;;13.70;;
52188;SDS011;38162;45.926;13.608;2022-11-03T15:46:06;22.27;;;12.30;;
52188;SDS011;38162;45.926;13.608;2022-11-03T15:48:33;21.50;;;12.13;;
52188;SDS011;38162;45.926;13.608;2022-11-03T15:50:58;19.77;;;12.38;;
52188;SDS011;38162;45.926;13.608;2022-11-03T15:53:24;18.35;;;10.93;;
52188;SDS011;38162;45.926;13.608;2022-11-03T15:55:49;17.83;;;10.90;;
52188;SDS011;38162;45.926;13.608;2022-11-03T15:58:15;20.67;;;10.32;;
52188;SDS011;38162;45.926;13.608;2022-11-03T16:00:41;18.27;;;9.82;;
52188;SDS011;38162;45.926;13.608;2022-11-03T16:03:06;15.88;;;10.48;;